Startpagina
METAR-TAF:

METAR-TAF

Vliegvelden :

Curaçao International Airport

Curaçao, Nederlandse Antillen

breedte: 12-12N, lengte: 068-58W, hoogte: 9 m

Actueel weer

Dit bericht is 12 minuten geleden gemaakt, om 20:00 UTC
Wind 14 kt uit het oosten
Temperatuur 31°C
Vochtigheid 63%
Druk 1011 hPa
Zicht 10 km of meer
Weinig wolken op 2100 ft

METAR: TNCC 072000Z 10014KT 9999 FEW021 31/23 Q1011 NOSIG

Tijdstip: 16:12 (20:12 UTC)

Verwachting

Dit bericht is 2 uur en het 57 minuten geleden gemaakt, om 17:15 UTC
Verwachting geldig van 07 om 18 UTC tot 08 om 18 UTC
Wind 16 kt uit het oosten
Zicht 10 km of meer
Verspreide wolken op 2000 ft

TAF: TNCC 071715Z 0718/0818 10016KT 9999 SCT020

Waarnemingen en weersverwachtingen van meer dan 4000 vliegvelden (METAR en TAF).

De beschikbare stations zijn de gele en rode punten op de kaart.

Ga met uw muis naar het station om de naam te zien.

Klik dan om waarnemingen en weersverwachtingen te zien.

kaart wijzigen: klik op de groene knoppen met een zwart kruis om in te zoomen, op de groene knop met een streepje om uit te zoomen of op de groene pijlen voor aangrenzende kaarten.


METAR-TAF: